createdAt,value
2022-12-20T00:01:33.615Z,14.33
2022-12-20T00:04:20.568Z,11.33
2022-12-20T00:07:07.588Z,11.73
2022-12-20T00:09:54.603Z,11.87
2022-12-20T00:12:41.610Z,12.80
2022-12-20T00:15:28.557Z,12.53
2022-12-20T00:18:15.561Z,15.83
2022-12-20T00:21:04.662Z,12.43
2022-12-20T00:23:52.934Z,11.30
2022-12-20T00:26:39.946Z,11.57
2022-12-20T00:29:26.922Z,9.87
2022-12-20T00:32:13.832Z,11.73
2022-12-20T00:35:00.777Z,12.20
2022-12-20T00:37:47.761Z,11.63
2022-12-20T00:40:34.789Z,10.77
2022-12-20T00:43:22.128Z,10.90
2022-12-20T00:46:10.654Z,12.07
2022-12-20T00:48:57.794Z,12.37
2022-12-20T00:51:44.852Z,12.70
2022-12-20T00:54:31.788Z,9.83
2022-12-20T00:57:18.744Z,10.80
2022-12-20T01:00:07.163Z,10.00
2022-12-20T01:02:54.349Z,10.73
2022-12-20T01:05:50.531Z,9.40
2022-12-20T01:08:37.763Z,10.67
2022-12-20T01:11:30.099Z,12.23
2022-12-20T01:14:17.098Z,9.57
2022-12-20T01:17:04.064Z,8.97
2022-12-20T01:19:51.131Z,11.07
2022-12-20T01:22:42.478Z,10.67
2022-12-20T01:25:34.231Z,11.10
2022-12-20T01:28:21.148Z,11.20
2022-12-20T01:31:13.899Z,11.67
2022-12-20T01:34:01.156Z,10.87
2022-12-20T01:36:49.662Z,7.73
2022-12-20T01:39:36.958Z,10.77
2022-12-20T01:42:23.994Z,10.63
2022-12-20T01:45:20.657Z,11.07
2022-12-20T01:48:07.850Z,11.83
2022-12-20T01:50:54.899Z,10.80
2022-12-20T01:53:42.089Z,12.30
2022-12-20T01:56:29.336Z,13.37
2022-12-20T01:59:16.632Z,9.03
2022-12-20T02:02:07.888Z,10.80
2022-12-20T02:04:55.136Z,10.67
2022-12-20T02:07:46.097Z,9.93
2022-12-20T02:10:59.397Z,10.60
2022-12-20T02:13:59.693Z,10.87
2022-12-20T02:17:15.576Z,10.30
2022-12-20T02:20:27.014Z,11.10
2022-12-20T02:23:22.314Z,9.93
2022-12-20T02:26:24.233Z,9.50
2022-12-20T02:30:14.433Z,9.70
2022-12-20T02:33:04.414Z,9.97
2022-12-20T02:35:51.339Z,9.67
2022-12-20T02:38:38.893Z,9.17
2022-12-20T02:41:43.048Z,9.40
2022-12-20T02:44:51.468Z,9.97
2022-12-20T02:47:48.063Z,10.50
2022-12-20T02:50:51.717Z,9.33
2022-12-20T02:53:42.763Z,8.10
2022-12-20T02:56:38.824Z,8.37
2022-12-20T02:59:36.756Z,9.80
2022-12-20T03:02:25.303Z,9.40
2022-12-20T03:05:12.696Z,7.47
2022-12-20T03:07:59.827Z,8.53
2022-12-20T03:10:47.284Z,7.13
2022-12-20T03:13:34.239Z,7.80
2022-12-20T03:16:22.215Z,9.20
2022-12-20T03:19:09.297Z,10.47
2022-12-20T03:21:56.271Z,7.17
2022-12-20T03:24:43.194Z,8.10
2022-12-20T03:27:30.291Z,9.73
2022-12-20T03:30:17.296Z,10.60
2022-12-20T03:33:04.448Z,8.67
2022-12-20T03:35:51.496Z,8.33
2022-12-20T03:38:38.465Z,9.17
2022-12-20T03:41:26.255Z,10.67
2022-12-20T03:44:13.263Z,7.40
2022-12-20T03:47:00.190Z,7.70
2022-12-20T03:49:47.223Z,7.47
2022-12-20T03:52:34.359Z,9.70
2022-12-20T03:55:21.302Z,6.93
2022-12-20T03:58:08.221Z,9.17
2022-12-20T04:00:57.189Z,9.33
2022-12-20T04:03:44.212Z,10.20
2022-12-20T04:06:31.800Z,10.53
2022-12-20T04:09:18.815Z,10.63
2022-12-20T04:12:06.266Z,9.57
2022-12-20T04:14:53.213Z,10.17
2022-12-20T04:17:40.347Z,9.57
2022-12-20T04:20:27.349Z,9.53
2022-12-20T04:23:14.321Z,9.80
2022-12-20T04:26:02.704Z,11.40
2022-12-20T04:28:49.765Z,12.67
2022-12-20T04:31:36.826Z,12.37
2022-12-20T04:34:23.875Z,8.83
2022-12-20T04:37:10.824Z,12.40
2022-12-20T04:39:58.467Z,10.70
2022-12-20T04:42:45.392Z,11.37
2022-12-20T04:45:32.411Z,11.37
2022-12-20T04:48:55.090Z,15.57
2022-12-20T04:51:28.584Z,10.93
2022-12-20T04:54:15.566Z,14.53
2022-12-20T04:57:02.517Z,15.73
2022-12-20T04:59:49.435Z,13.40
2022-12-20T05:02:36.648Z,15.07
2022-12-20T05:05:23.849Z,16.37
2022-12-20T05:08:11.638Z,14.37
2022-12-20T05:10:58.781Z,14.57
2022-12-20T05:13:45.765Z,16.77
2022-12-20T05:16:32.876Z,14.83
2022-12-20T05:19:19.914Z,14.03
2022-12-20T05:22:25.391Z,15.13
2022-12-20T05:25:31.632Z,14.97
2022-12-20T05:28:18.563Z,18.43
2022-12-20T05:31:05.785Z,15.30
2022-12-20T05:33:52.842Z,18.63
2022-12-20T05:36:39.825Z,18.33
2022-12-20T05:39:27.386Z,21.27
2022-12-20T05:42:14.707Z,20.60
2022-12-20T05:45:01.686Z,22.10
2022-12-20T05:47:48.634Z,19.60
2022-12-20T05:50:35.563Z,22.90
2022-12-20T05:53:22.720Z,22.93
2022-12-20T05:56:09.651Z,22.33
2022-12-20T05:58:57.093Z,24.40
2022-12-20T06:01:44.203Z,20.87
2022-12-20T06:04:32.360Z,22.07
2022-12-20T06:07:19.940Z,22.87
2022-12-20T06:10:07.879Z,19.20
2022-12-20T06:12:54.833Z,22.17
2022-12-20T06:15:41.746Z,20.40
2022-12-20T06:18:28.860Z,23.97
2022-12-20T06:21:16.192Z,22.23
2022-12-20T06:24:03.475Z,20.40
2022-12-20T06:26:50.398Z,21.53
2022-12-20T06:29:37.685Z,22.87
2022-12-20T06:32:24.650Z,19.43
2022-12-20T06:35:11.669Z,21.30
2022-12-20T06:37:58.634Z,21.53
2022-12-20T06:40:45.625Z,20.87
2022-12-20T06:43:32.683Z,23.73
2022-12-20T06:46:19.663Z,21.27
2022-12-20T06:49:06.741Z,22.07
2022-12-20T06:51:53.697Z,21.67
2022-12-20T06:54:40.706Z,18.93
2022-12-20T06:57:27.719Z,22.63
2022-12-20T07:00:15.440Z,20.20
2022-12-20T07:03:02.626Z,18.67
2022-12-20T07:05:53.575Z,16.87
2022-12-20T07:08:40.531Z,18.17
2022-12-20T07:11:27.592Z,17.03
2022-12-20T07:14:14.661Z,15.13
2022-12-20T07:17:01.788Z,16.03
2022-12-20T07:19:51.187Z,13.90
2022-12-20T07:22:38.478Z,15.40
2022-12-20T07:25:25.731Z,24.23
2022-12-20T07:28:13.019Z,27.33
2022-12-20T07:31:03.532Z,28.63
2022-12-20T07:33:51.175Z,22.73
2022-12-20T07:36:38.285Z,14.20
2022-12-20T07:39:25.705Z,11.23
2022-12-20T07:42:12.816Z,13.53
2022-12-20T07:45:00.043Z,14.87
2022-12-20T07:47:47.093Z,15.53
2022-12-20T07:50:36.204Z,13.97
2022-12-20T07:53:25.700Z,16.17
2022-12-20T07:56:15.303Z,16.40
2022-12-20T07:59:04.185Z,17.60
2022-12-20T08:01:51.652Z,16.10
2022-12-20T08:04:39.990Z,15.63
2022-12-20T08:07:29.748Z,17.83
2022-12-20T08:10:19.867Z,14.77
2022-12-20T08:13:07.965Z,14.87
2022-12-20T08:15:55.159Z,15.10
2022-12-20T08:18:42.361Z,15.13
2022-12-20T08:21:30.745Z,19.17
2022-12-20T08:24:17.798Z,15.23
2022-12-20T08:27:04.808Z,19.43
2022-12-20T08:29:51.890Z,16.07
2022-12-20T08:32:38.950Z,18.17
2022-12-20T08:35:26.089Z,17.83
2022-12-20T08:38:13.734Z,17.87
2022-12-20T08:41:05.256Z,17.80
2022-12-20T08:43:52.284Z,19.13
2022-12-20T08:46:39.440Z,17.60
2022-12-20T08:49:26.581Z,14.87
2022-12-20T08:52:13.626Z,19.30
2022-12-20T08:55:01.900Z,18.10
2022-12-20T08:57:49.387Z,18.07
2022-12-20T09:00:37.208Z,18.67
2022-12-20T09:03:24.227Z,17.67
2022-12-20T09:06:18.396Z,18.53
2022-12-20T09:09:07.123Z,21.10
2022-12-20T09:11:54.407Z,18.00
2022-12-20T09:14:42.211Z,19.87
2022-12-20T09:17:30.173Z,16.73
2022-12-20T09:20:17.260Z,16.17
2022-12-20T09:23:04.403Z,14.33
2022-12-20T09:25:53.990Z,16.60
2022-12-20T09:28:42.424Z,14.83
2022-12-20T09:31:29.554Z,17.43
2022-12-20T09:34:16.829Z,17.23
2022-12-20T09:37:03.823Z,14.77
2022-12-20T09:39:51.725Z,16.47
2022-12-20T09:42:38.805Z,14.97
2022-12-20T09:45:29.726Z,17.97
2022-12-20T09:48:20.424Z,16.93
2022-12-20T09:51:10.619Z,15.27
2022-12-20T09:54:31.461Z,15.60
2022-12-20T09:57:27.871Z,15.87
2022-12-20T10:00:17.579Z,16.87
2022-12-20T10:03:10.517Z,16.80
2022-12-20T10:06:13.941Z,16.83
2022-12-20T10:09:04.659Z,14.97
2022-12-20T10:12:19.643Z,14.03
2022-12-20T10:15:26.770Z,15.80
2022-12-20T10:18:43.017Z,15.77
2022-12-20T10:21:51.708Z,16.07
2022-12-20T10:24:41.346Z,16.93
2022-12-20T10:27:28.432Z,15.87
2022-12-20T10:30:18.228Z,12.97
2022-12-20T10:33:05.252Z,15.47
2022-12-20T10:35:52.498Z,12.40
2022-12-20T10:38:50.820Z,11.37
2022-12-20T10:41:40.494Z,11.37
2022-12-20T10:44:29.943Z,10.93
2022-12-20T10:47:40.617Z,12.37
2022-12-20T10:50:28.074Z,11.93
2022-12-20T10:53:24.260Z,9.57
2022-12-20T10:56:12.206Z,10.80
2022-12-20T10:59:17.813Z,8.93
2022-12-20T11:02:34.990Z,12.40
2022-12-20T11:05:26.744Z,9.00
2022-12-20T11:08:36.213Z,8.27
2022-12-20T11:11:25.185Z,9.27
2022-12-20T11:14:16.217Z,6.87
2022-12-20T11:17:43.762Z,10.63
2022-12-20T11:20:53.131Z,9.07
2022-12-20T11:24:24.151Z,7.63
2022-12-20T11:27:37.703Z,8.53
2022-12-20T11:30:34.294Z,9.13
2022-12-20T11:33:31.665Z,8.00
2022-12-20T11:36:30.689Z,7.43
2022-12-20T11:39:38.629Z,6.90
2022-12-20T11:42:51.959Z,6.27
2022-12-20T11:45:47.955Z,7.57
2022-12-20T11:48:55.374Z,5.73
2022-12-20T11:52:14.716Z,8.93
2022-12-20T11:55:27.441Z,7.50
2022-12-20T11:58:22.536Z,7.83
2022-12-20T12:01:17.177Z,8.77
2022-12-20T12:04:17.277Z,7.37
2022-12-20T12:07:22.071Z,10.17
2022-12-20T12:10:26.011Z,10.23
2022-12-20T12:13:25.215Z,8.77
2022-12-20T12:16:24.562Z,8.77
2022-12-20T12:19:13.631Z,11.83
2022-12-20T12:22:13.080Z,9.80
2022-12-20T12:25:04.636Z,16.17
2022-12-20T12:27:51.734Z,9.70
2022-12-20T12:30:44.063Z,10.97
2022-12-20T12:33:39.927Z,9.33
2022-12-20T12:36:47.936Z,9.73
2022-12-20T12:39:53.137Z,8.90
2022-12-20T12:43:08.819Z,10.20
2022-12-20T12:46:01.380Z,8.53
2022-12-20T12:49:04.142Z,10.37
2022-12-20T12:51:55.987Z,9.07
2022-12-20T12:54:44.159Z,9.23
2022-12-20T12:57:57.438Z,9.07
2022-12-20T13:00:52.686Z,7.73
2022-12-20T13:03:46.201Z,8.47
2022-12-20T13:06:36.423Z,7.90
2022-12-20T13:09:26.400Z,8.90
2022-12-20T13:12:38.238Z,10.93
2022-12-20T13:15:25.248Z,9.37
2022-12-20T13:18:12.270Z,9.60
2022-12-20T13:21:35.395Z,10.67
2022-12-20T13:24:50.743Z,9.77
2022-12-20T13:27:42.261Z,11.07
2022-12-20T13:30:29.617Z,9.60
2022-12-20T13:33:23.051Z,11.40
2022-12-20T13:36:10.021Z,10.37
2022-12-20T13:39:00.270Z,8.80
2022-12-20T13:41:51.248Z,9.60
2022-12-20T13:44:45.259Z,11.40
2022-12-20T13:47:37.016Z,10.70
2022-12-20T13:50:41.903Z,10.83
2022-12-20T13:53:29.107Z,10.17
2022-12-20T13:56:50.003Z,11.30
2022-12-20T13:59:37.095Z,12.53
2022-12-20T14:02:29.682Z,11.43
2022-12-20T14:05:21.361Z,10.13
2022-12-20T14:08:18.149Z,13.60
2022-12-20T14:11:12.248Z,13.33
2022-12-20T14:14:04.507Z,13.50
2022-12-20T14:16:51.613Z,15.10
2022-12-20T14:19:38.661Z,11.13
2022-12-20T14:22:25.757Z,10.37
2022-12-20T14:25:18.197Z,9.83
2022-12-20T14:28:06.443Z,10.97
2022-12-20T14:30:54.097Z,8.77
2022-12-20T14:33:42.382Z,10.33
2022-12-20T14:36:31.766Z,9.77
2022-12-20T14:39:32.578Z,11.87
2022-12-20T14:42:20.824Z,12.10
2022-12-20T14:45:10.561Z,12.17
2022-12-20T14:48:02.136Z,13.80
2022-12-20T14:50:53.972Z,10.00
2022-12-20T14:53:44.882Z,12.10
2022-12-20T14:56:33.527Z,11.20
2022-12-20T14:59:27.597Z,10.77
2022-12-20T15:02:40.208Z,11.63
2022-12-20T15:05:36.945Z,12.63
2022-12-20T15:08:28.470Z,11.50
2022-12-20T15:11:23.040Z,13.57
2022-12-20T15:14:27.473Z,12.43
2022-12-20T15:17:15.887Z,14.70
2022-12-20T15:20:03.125Z,13.27
2022-12-20T15:22:50.487Z,12.83
2022-12-20T15:25:42.952Z,12.27
2022-12-20T15:28:30.892Z,14.93
2022-12-20T15:31:22.982Z,10.73
2022-12-20T15:34:27.480Z,12.93
2022-12-20T15:37:18.702Z,12.20
2022-12-20T15:40:07.354Z,15.47
2022-12-20T15:42:54.409Z,12.53
2022-12-20T15:45:43.481Z,11.27
2022-12-20T15:48:30.713Z,11.97
2022-12-20T15:51:28.852Z,11.43
2022-12-20T15:54:45.019Z,11.63
2022-12-20T15:57:32.037Z,10.83
2022-12-20T16:00:19.429Z,15.00
2022-12-20T16:03:14.261Z,10.80
2022-12-20T16:06:01.385Z,11.33
2022-12-20T16:08:48.427Z,12.10
2022-12-20T16:11:36.067Z,11.53
2022-12-20T16:14:23.686Z,9.37
2022-12-20T16:17:15.014Z,10.63
2022-12-20T16:20:02.165Z,9.27
2022-12-20T16:22:49.105Z,9.80
2022-12-20T16:25:36.840Z,12.97
2022-12-20T16:28:23.772Z,13.27
2022-12-20T16:31:17.926Z,9.90
2022-12-20T16:34:10.698Z,9.90
2022-12-20T16:36:57.660Z,9.90
2022-12-20T16:39:44.767Z,9.60
2022-12-20T16:42:31.776Z,8.67
2022-12-20T16:45:39.206Z,9.87
2022-12-20T16:48:26.184Z,7.63
2022-12-20T16:51:27.323Z,12.07
2022-12-20T16:54:19.801Z,10.57
2022-12-20T16:57:07.199Z,8.83
2022-12-20T16:59:54.446Z,12.33
2022-12-20T17:02:41.512Z,8.90
2022-12-20T17:05:32.210Z,12.10
2022-12-20T17:11:30.653Z,10.73
2022-12-20T17:14:19.926Z,10.30
2022-12-20T17:17:07.849Z,11.17
2022-12-20T17:19:54.841Z,13.17
2022-12-20T17:25:53.756Z,11.03
2022-12-20T17:28:41.265Z,11.90
2022-12-20T17:31:34.475Z,10.60
2022-12-20T17:34:27.257Z,13.67
2022-12-20T17:37:14.281Z,12.70
2022-12-20T17:40:01.399Z,14.47
2022-12-20T17:42:49.208Z,18.67
2022-12-20T17:45:37.582Z,30.33
2022-12-20T17:48:32.160Z,17.03
2022-12-20T17:51:22.939Z,14.10
2022-12-20T17:54:18.511Z,14.93
2022-12-20T17:57:05.903Z,14.30
2022-12-20T17:59:53.009Z,15.80
2022-12-20T18:02:40.532Z,18.37
2022-12-20T18:05:27.643Z,15.47
2022-12-20T18:08:14.635Z,13.40
2022-12-20T18:11:01.680Z,16.60
2022-12-20T18:13:50.920Z,14.60
2022-12-20T18:16:41.448Z,14.77
2022-12-20T18:19:28.425Z,14.50
2022-12-20T18:22:15.549Z,11.53
2022-12-20T18:25:09.260Z,14.43
2022-12-20T18:27:56.373Z,10.37
2022-12-20T18:30:44.084Z,11.80
2022-12-20T18:33:31.312Z,15.40
2022-12-20T18:36:20.804Z,12.10
2022-12-20T18:39:11.686Z,14.13
2022-12-20T18:41:58.789Z,12.83
2022-12-20T18:44:45.724Z,15.90
2022-12-20T18:47:32.717Z,18.93
2022-12-20T18:50:19.704Z,16.13
2022-12-20T18:53:07.192Z,20.00
2022-12-20T18:55:54.177Z,15.90
2022-12-20T18:58:42.495Z,19.17
2022-12-20T19:01:32.474Z,18.40
2022-12-20T19:04:24.552Z,20.87
2022-12-20T19:07:12.926Z,17.57
2022-12-20T19:10:00.207Z,19.33
2022-12-20T19:12:47.216Z,18.87
2022-12-20T19:15:34.371Z,17.67
2022-12-20T19:18:21.785Z,16.03
2022-12-20T19:21:17.656Z,17.00
2022-12-20T19:24:07.115Z,16.80
2022-12-20T19:26:54.595Z,17.83
2022-12-20T19:29:41.931Z,16.40
2022-12-20T19:32:29.275Z,19.40
2022-12-20T19:35:45.611Z,21.20
2022-12-20T19:38:23.830Z,18.30
2022-12-20T19:41:11.625Z,22.13
2022-12-20T19:43:59.171Z,19.00
2022-12-20T19:46:46.583Z,23.37
2022-12-20T19:49:35.840Z,21.00
2022-12-20T19:52:28.252Z,19.60
2022-12-20T19:55:16.076Z,20.87
2022-12-20T19:58:03.683Z,24.47
2022-12-20T20:00:50.743Z,23.10
2022-12-20T20:03:38.691Z,22.37
2022-12-20T20:06:27.559Z,23.83
2022-12-20T20:09:15.698Z,23.37
2022-12-20T20:12:02.741Z,22.77
2022-12-20T20:14:49.787Z,22.80
2022-12-20T20:17:36.774Z,20.83
2022-12-20T20:20:23.928Z,23.13
2022-12-20T20:23:11.031Z,21.27
2022-12-20T20:25:58.087Z,20.90
2022-12-20T20:28:45.712Z,21.47
2022-12-20T20:31:33.186Z,22.90
2022-12-20T20:34:20.634Z,26.13
2022-12-20T20:37:08.455Z,21.93
2022-12-20T20:39:55.415Z,23.07
2022-12-20T20:42:42.410Z,20.53
2022-12-20T20:45:29.662Z,19.73
2022-12-20T20:48:17.438Z,21.90
2022-12-20T20:51:05.180Z,27.37
2022-12-20T20:53:52.167Z,24.33
2022-12-20T20:56:39.157Z,21.87
2022-12-20T20:59:26.136Z,22.63
2022-12-20T21:02:16.446Z,21.00
2022-12-20T21:08:10.846Z,22.33
2022-12-20T21:10:57.956Z,25.40
2022-12-20T21:13:45.011Z,29.63
2022-12-20T21:16:32.139Z,20.93
2022-12-20T21:19:19.162Z,22.17
2022-12-20T21:22:06.212Z,21.10
2022-12-20T21:24:53.238Z,20.33
2022-12-20T21:27:40.481Z,19.33
2022-12-20T21:30:27.495Z,19.80
2022-12-20T21:33:14.469Z,19.60
2022-12-20T21:36:04.791Z,19.93
2022-12-20T21:38:54.149Z,22.20
2022-12-20T21:41:41.087Z,19.33
2022-12-20T21:44:28.262Z,21.77
2022-12-20T21:47:15.262Z,22.53
2022-12-20T21:50:02.272Z,21.47
2022-12-20T21:52:49.209Z,27.10
2022-12-20T21:55:36.157Z,23.10
2022-12-20T21:58:26.648Z,24.83
2022-12-20T22:01:16.843Z,20.63
2022-12-20T22:04:05.895Z,22.80
2022-12-20T22:06:52.905Z,24.57
2022-12-20T22:09:39.836Z,24.43
2022-12-20T22:12:26.802Z,26.10
2022-12-20T22:15:13.800Z,28.27
2022-12-20T22:18:00.783Z,29.53
2022-12-20T22:20:47.892Z,25.00
2022-12-20T22:23:35.672Z,23.80
2022-12-20T22:26:25.870Z,25.53
2022-12-20T22:29:12.858Z,25.70
2022-12-20T22:32:00.025Z,24.77
2022-12-20T22:34:47.091Z,28.13
2022-12-20T22:37:34.014Z,31.23
2022-12-20T22:40:21.050Z,29.30
2022-12-20T22:43:08.206Z,29.73
2022-12-20T22:45:57.504Z,30.73
2022-12-20T22:48:45.523Z,30.27
2022-12-20T22:51:33.887Z,34.57
2022-12-20T22:54:21.058Z,32.50
2022-12-20T22:57:10.408Z,30.70
2022-12-20T22:59:58.924Z,33.53
2022-12-20T23:02:46.003Z,34.87
2022-12-20T23:05:33.990Z,31.57
2022-12-20T23:08:22.023Z,31.57
2022-12-20T23:11:42.727Z,32.47
2022-12-20T23:14:48.269Z,37.10
2022-12-20T23:17:35.201Z,34.70
2022-12-20T23:20:41.007Z,35.70
2022-12-20T23:23:28.031Z,32.83
2022-12-20T23:26:16.993Z,40.53
2022-12-20T23:29:05.275Z,38.10
2022-12-20T23:31:52.318Z,34.97
2022-12-20T23:34:39.252Z,37.97
2022-12-20T23:37:28.063Z,37.87
2022-12-20T23:40:16.879Z,44.27
2022-12-20T23:43:03.799Z,130.43
2022-12-20T23:45:50.926Z,40.23
2022-12-20T23:48:38.234Z,28.23
2022-12-20T23:51:25.228Z,76.90
2022-12-20T23:54:12.395Z,62.27
2022-12-20T23:56:59.427Z,141.10
2022-12-20T23:59:46.371Z,40.37
